sensor_id;sensor_type;location;lat;lon;timestamp;P1;durP1;ratioP1;P2;durP2;ratioP2
33902;SDS011;20194;50.950;5.346;2024-01-15T00:00:12;70.03;;;23.58;;
33902;SDS011;20194;50.950;5.346;2024-01-15T00:02:38;64.05;;;20.70;;
33902;SDS011;20194;50.950;5.346;2024-01-15T00:05:04;66.00;;;21.92;;
33902;SDS011;20194;50.950;5.346;2024-01-15T00:07:30;63.28;;;21.45;;
33902;SDS011;20194;50.950;5.346;2024-01-15T00:09:56;63.95;;;21.02;;
33902;SDS011;20194;50.950;5.346;2024-01-15T00:12:21;59.33;;;20.38;;
33902;SDS011;20194;50.950;5.346;2024-01-15T00:14:48;67.93;;;21.10;;
33902;SDS011;20194;50.950;5.346;2024-01-15T00:17:13;73.38;;;23.50;;
33902;SDS011;20194;50.950;5.346;2024-01-15T00:19:39;76.80;;;24.38;;
33902;SDS011;20194;50.950;5.346;2024-01-15T00:22:05;72.68;;;22.50;;
33902;SDS011;20194;50.950;5.346;2024-01-15T00:24:31;71.78;;;21.98;;
33902;SDS011;20194;50.950;5.346;2024-01-15T00:26:56;50.58;;;18.60;;
33902;SDS011;20194;50.950;5.346;2024-01-15T00:29:22;62.08;;;20.15;;
33902;SDS011;20194;50.950;5.346;2024-01-15T00:31:48;60.17;;;19.55;;
33902;SDS011;20194;50.950;5.346;2024-01-15T00:34:13;64.43;;;20.27;;
33902;SDS011;20194;50.950;5.346;2024-01-15T00:36:39;57.17;;;19.85;;
33902;SDS011;20194;50.950;5.346;2024-01-15T00:39:05;56.72;;;18.95;;
33902;SDS011;20194;50.950;5.346;2024-01-15T00:41:31;58.40;;;20.30;;
33902;SDS011;20194;50.950;5.346;2024-01-15T00:43:57;63.67;;;20.30;;
33902;SDS011;20194;50.950;5.346;2024-01-15T00:46:22;46.25;;;15.65;;
33902;SDS011;20194;50.950;5.346;2024-01-15T00:48:48;58.72;;;19.75;;
33902;SDS011;20194;50.950;5.346;2024-01-15T00:51:14;63.13;;;22.88;;
33902;SDS011;20194;50.950;5.346;2024-01-15T00:53:40;64.53;;;21.38;;
33902;SDS011;20194;50.950;5.346;2024-01-15T00:56:06;62.65;;;20.60;;
33902;SDS011;20194;50.950;5.346;2024-01-15T00:58:31;69.25;;;21.13;;
33902;SDS011;20194;50.950;5.346;2024-01-15T01:00:57;69.13;;;21.55;;
33902;SDS011;20194;50.950;5.346;2024-01-15T01:03:23;63.22;;;23.33;;
33902;SDS011;20194;50.950;5.346;2024-01-15T01:05:49;65.18;;;21.88;;
33902;SDS011;20194;50.950;5.346;2024-01-15T01:08:17;64.43;;;17.90;;
33902;SDS011;20194;50.950;5.346;2024-01-15T01:10:43;76.20;;;23.25;;
33902;SDS011;20194;50.950;5.346;2024-01-15T01:13:09;66.18;;;22.58;;
33902;SDS011;20194;50.950;5.346;2024-01-15T01:15:34;66.13;;;22.48;;
33902;SDS011;20194;50.950;5.346;2024-01-15T01:18:00;62.78;;;21.90;;
33902;SDS011;20194;50.950;5.346;2024-01-15T01:20:26;65.95;;;21.67;;
33902;SDS011;20194;50.950;5.346;2024-01-15T01:22:52;67.45;;;22.67;;
33902;SDS011;20194;50.950;5.346;2024-01-15T01:25:18;70.05;;;21.48;;
33902;SDS011;20194;50.950;5.346;2024-01-15T01:27:44;54.80;;;21.33;;
33902;SDS011;20194;50.950;5.346;2024-01-15T01:30:09;64.30;;;22.30;;
33902;SDS011;20194;50.950;5.346;2024-01-15T01:32:36;65.65;;;21.40;;
33902;SDS011;20194;50.950;5.346;2024-01-15T01:35:01;65.47;;;21.35;;
33902;SDS011;20194;50.950;5.346;2024-01-15T01:37:27;63.20;;;20.95;;
33902;SDS011;20194;50.950;5.346;2024-01-15T01:39:53;64.13;;;23.23;;
33902;SDS011;20194;50.950;5.346;2024-01-15T01:42:19;59.03;;;21.17;;
33902;SDS011;20194;50.950;5.346;2024-01-15T01:44:44;56.50;;;20.73;;
33902;SDS011;20194;50.950;5.346;2024-01-15T01:47:10;61.53;;;21.35;;
33902;SDS011;20194;50.950;5.346;2024-01-15T01:49:36;64.20;;;20.60;;
33902;SDS011;20194;50.950;5.346;2024-01-15T01:52:02;54.63;;;20.90;;
33902;SDS011;20194;50.950;5.346;2024-01-15T01:54:32;66.47;;;21.77;;
33902;SDS011;20194;50.950;5.346;2024-01-15T01:56:59;64.07;;;21.42;;
33902;SDS011;20194;50.950;5.346;2024-01-15T01:59:27;63.00;;;20.10;;
33902;SDS011;20194;50.950;5.346;2024-01-15T02:01:57;51.17;;;19.92;;
33902;SDS011;20194;50.950;5.346;2024-01-15T02:04:25;61.80;;;20.00;;
33902;SDS011;20194;50.950;5.346;2024-01-15T02:06:51;52.17;;;17.38;;
33902;SDS011;20194;50.950;5.346;2024-01-15T02:09:18;54.28;;;17.63;;
33902;SDS011;20194;50.950;5.346;2024-01-15T02:11:46;50.95;;;18.33;;
33902;SDS011;20194;50.950;5.346;2024-01-15T02:14:12;52.30;;;17.20;;
33902;SDS011;20194;50.950;5.346;2024-01-15T02:16:38;53.63;;;16.85;;
33902;SDS011;20194;50.950;5.346;2024-01-15T02:19:04;50.13;;;18.35;;
33902;SDS011;20194;50.950;5.346;2024-01-15T02:21:30;50.83;;;17.23;;
33902;SDS011;20194;50.950;5.346;2024-01-15T02:23:56;48.47;;;17.90;;
33902;SDS011;20194;50.950;5.346;2024-01-15T02:26:22;49.15;;;17.17;;
33902;SDS011;20194;50.950;5.346;2024-01-15T02:28:49;50.38;;;16.65;;
33902;SDS011;20194;50.950;5.346;2024-01-15T02:31:16;44.17;;;17.67;;
33902;SDS011;20194;50.950;5.346;2024-01-15T02:33:42;39.65;;;15.30;;
33902;SDS011;20194;50.950;5.346;2024-01-15T02:36:09;44.55;;;17.02;;
33902;SDS011;20194;50.950;5.346;2024-01-15T02:38:35;42.15;;;16.83;;
33902;SDS011;20194;50.950;5.346;2024-01-15T02:41:02;45.80;;;15.60;;
33902;SDS011;20194;50.950;5.346;2024-01-15T02:43:27;46.58;;;16.95;;
33902;SDS011;20194;50.950;5.346;2024-01-15T02:45:53;44.78;;;17.15;;
33902;SDS011;20194;50.950;5.346;2024-01-15T02:48:19;47.65;;;16.98;;
33902;SDS011;20194;50.950;5.346;2024-01-15T02:50:44;44.95;;;16.08;;
33902;SDS011;20194;50.950;5.346;2024-01-15T02:53:11;46.78;;;17.20;;
33902;SDS011;20194;50.950;5.346;2024-01-15T02:55:36;39.60;;;15.52;;
33902;SDS011;20194;50.950;5.346;2024-01-15T02:58:02;42.58;;;15.13;;
33902;SDS011;20194;50.950;5.346;2024-01-15T03:00:28;49.50;;;16.88;;
33902;SDS011;20194;50.950;5.346;2024-01-15T03:02:54;36.42;;;15.65;;
33902;SDS011;20194;50.950;5.346;2024-01-15T03:05:20;39.05;;;14.93;;
33902;SDS011;20194;50.950;5.346;2024-01-15T03:07:46;43.38;;;17.25;;
33902;SDS011;20194;50.950;5.346;2024-01-15T03:10:11;38.78;;;15.35;;
33902;SDS011;20194;50.950;5.346;2024-01-15T03:12:37;42.15;;;14.80;;
33902;SDS011;20194;50.950;5.346;2024-01-15T03:15:03;26.73;;;12.65;;
33902;SDS011;20194;50.950;5.346;2024-01-15T03:17:29;35.72;;;14.25;;
33902;SDS011;20194;50.950;5.346;2024-01-15T03:19:54;36.42;;;13.68;;
33902;SDS011;20194;50.950;5.346;2024-01-15T03:22:20;32.40;;;13.40;;
33902;SDS011;20194;50.950;5.346;2024-01-15T03:24:46;30.25;;;12.45;;
33902;SDS011;20194;50.950;5.346;2024-01-15T03:27:12;33.78;;;13.57;;
33902;SDS011;20194;50.950;5.346;2024-01-15T03:29:37;39.78;;;13.35;;
33902;SDS011;20194;50.950;5.346;2024-01-15T03:32:04;33.33;;;12.15;;
33902;SDS011;20194;50.950;5.346;2024-01-15T03:34:30;26.20;;;12.35;;
33902;SDS011;20194;50.950;5.346;2024-01-15T03:36:56;31.02;;;12.73;;
33902;SDS011;20194;50.950;5.346;2024-01-15T03:39:21;22.90;;;10.82;;
33902;SDS011;20194;50.950;5.346;2024-01-15T03:41:47;22.58;;;10.48;;
33902;SDS011;20194;50.950;5.346;2024-01-15T03:44:13;28.40;;;11.82;;
33902;SDS011;20194;50.950;5.346;2024-01-15T03:46:38;32.22;;;11.73;;
33902;SDS011;20194;50.950;5.346;2024-01-15T03:49:04;31.95;;;11.68;;
33902;SDS011;20194;50.950;5.346;2024-01-15T03:51:30;40.53;;;11.77;;
33902;SDS011;20194;50.950;5.346;2024-01-15T03:53:55;35.53;;;11.43;;
33902;SDS011;20194;50.950;5.346;2024-01-15T03:56:21;27.08;;;11.65;;
33902;SDS011;20194;50.950;5.346;2024-01-15T03:58:47;23.35;;;11.93;;
33902;SDS011;20194;50.950;5.346;2024-01-15T04:01:13;27.13;;;11.48;;
33902;SDS011;20194;50.950;5.346;2024-01-15T04:03:39;28.42;;;11.40;;
33902;SDS011;20194;50.950;5.346;2024-01-15T04:06:05;30.20;;;11.90;;
33902;SDS011;20194;50.950;5.346;2024-01-15T04:08:30;23.25;;;9.95;;
33902;SDS011;20194;50.950;5.346;2024-01-15T04:10:56;24.98;;;10.57;;
33902;SDS011;20194;50.950;5.346;2024-01-15T04:13:22;26.38;;;11.73;;
33902;SDS011;20194;50.950;5.346;2024-01-15T04:15:48;27.80;;;10.55;;
33902;SDS011;20194;50.950;5.346;2024-01-15T04:18:15;25.08;;;9.82;;
33902;SDS011;20194;50.950;5.346;2024-01-15T04:20:42;28.65;;;11.43;;
33902;SDS011;20194;50.950;5.346;2024-01-15T04:23:08;21.70;;;9.63;;
33902;SDS011;20194;50.950;5.346;2024-01-15T04:25:33;23.30;;;9.10;;
33902;SDS011;20194;50.950;5.346;2024-01-15T04:27:59;24.40;;;10.90;;
33902;SDS011;20194;50.950;5.346;2024-01-15T04:30:25;24.65;;;10.55;;
33902;SDS011;20194;50.950;5.346;2024-01-15T04:32:51;23.33;;;10.00;;
33902;SDS011;20194;50.950;5.346;2024-01-15T04:35:17;23.73;;;10.25;;
33902;SDS011;20194;50.950;5.346;2024-01-15T04:37:42;29.55;;;10.88;;
33902;SDS011;20194;50.950;5.346;2024-01-15T04:40:09;24.30;;;11.35;;
33902;SDS011;20194;50.950;5.346;2024-01-15T04:42:35;19.83;;;9.80;;
33902;SDS011;20194;50.950;5.346;2024-01-15T04:45:00;27.45;;;10.32;;
33902;SDS011;20194;50.950;5.346;2024-01-15T04:47:26;25.35;;;10.88;;
33902;SDS011;20194;50.950;5.346;2024-01-15T04:49:52;21.10;;;9.55;;
33902;SDS011;20194;50.950;5.346;2024-01-15T04:52:18;28.08;;;9.90;;
33902;SDS011;20194;50.950;5.346;2024-01-15T04:54:44;20.42;;;9.90;;
33902;SDS011;20194;50.950;5.346;2024-01-15T04:57:10;23.63;;;11.02;;
33902;SDS011;20194;50.950;5.346;2024-01-15T04:59:35;18.60;;;9.05;;
33902;SDS011;20194;50.950;5.346;2024-01-15T05:02:01;26.70;;;10.38;;
33902;SDS011;20194;50.950;5.346;2024-01-15T05:04:26;29.58;;;11.18;;
33902;SDS011;20194;50.950;5.346;2024-01-15T05:06:53;26.05;;;10.50;;
33902;SDS011;20194;50.950;5.346;2024-01-15T05:09:19;27.77;;;10.55;;
33902;SDS011;20194;50.950;5.346;2024-01-15T05:11:44;27.50;;;10.88;;
33902;SDS011;20194;50.950;5.346;2024-01-15T05:14:10;30.38;;;10.93;;
33902;SDS011;20194;50.950;5.346;2024-01-15T05:16:39;24.45;;;10.65;;
33902;SDS011;20194;50.950;5.346;2024-01-15T05:19:06;27.27;;;10.77;;
33902;SDS011;20194;50.950;5.346;2024-01-15T05:21:33;22.95;;;10.43;;
33902;SDS011;20194;50.950;5.346;2024-01-15T05:23:58;27.27;;;11.35;;
33902;SDS011;20194;50.950;5.346;2024-01-15T05:26:24;31.27;;;13.20;;
33902;SDS011;20194;50.950;5.346;2024-01-15T05:28:50;30.67;;;12.30;;
33902;SDS011;20194;50.950;5.346;2024-01-15T05:31:15;29.50;;;13.38;;
33902;SDS011;20194;50.950;5.346;2024-01-15T05:33:41;41.50;;;14.23;;
33902;SDS011;20194;50.950;5.346;2024-01-15T05:36:07;35.20;;;14.50;;
33902;SDS011;20194;50.950;5.346;2024-01-15T05:38:33;33.55;;;14.55;;
33902;SDS011;20194;50.950;5.346;2024-01-15T05:40:59;41.72;;;15.95;;
33902;SDS011;20194;50.950;5.346;2024-01-15T05:43:24;33.38;;;15.57;;
33902;SDS011;20194;50.950;5.346;2024-01-15T05:45:50;40.03;;;16.15;;
33902;SDS011;20194;50.950;5.346;2024-01-15T05:48:15;46.58;;;16.98;;
33902;SDS011;20194;50.950;5.346;2024-01-15T05:50:41;36.88;;;16.02;;
33902;SDS011;20194;50.950;5.346;2024-01-15T05:53:07;48.80;;;18.60;;
33902;SDS011;20194;50.950;5.346;2024-01-15T05:55:33;41.90;;;17.08;;
33902;SDS011;20194;50.950;5.346;2024-01-15T05:58:00;43.20;;;17.92;;
33902;SDS011;20194;50.950;5.346;2024-01-15T06:00:26;38.22;;;16.13;;
33902;SDS011;20194;50.950;5.346;2024-01-15T06:02:51;48.45;;;17.92;;
33902;SDS011;20194;50.950;5.346;2024-01-15T06:05:20;49.85;;;18.27;;
33902;SDS011;20194;50.950;5.346;2024-01-15T06:07:46;43.20;;;18.35;;
33902;SDS011;20194;50.950;5.346;2024-01-15T06:10:12;48.97;;;18.75;;
33902;SDS011;20194;50.950;5.346;2024-01-15T06:12:38;51.55;;;18.08;;
33902;SDS011;20194;50.950;5.346;2024-01-15T06:15:04;50.70;;;18.38;;
33902;SDS011;20194;50.950;5.346;2024-01-15T06:17:30;42.72;;;16.02;;
33902;SDS011;20194;50.950;5.346;2024-01-15T06:19:56;45.70;;;17.35;;
33902;SDS011;20194;50.950;5.346;2024-01-15T06:22:22;45.17;;;16.80;;
33902;SDS011;20194;50.950;5.346;2024-01-15T06:24:48;52.72;;;18.45;;
33902;SDS011;20194;50.950;5.346;2024-01-15T06:27:14;53.88;;;17.92;;
33902;SDS011;20194;50.950;5.346;2024-01-15T06:29:44;44.58;;;16.88;;
33902;SDS011;20194;50.950;5.346;2024-01-15T06:32:11;29.88;;;11.50;;
33902;SDS011;20194;50.950;5.346;2024-01-15T06:34:36;39.10;;;15.68;;
33902;SDS011;20194;50.950;5.346;2024-01-15T06:37:02;43.75;;;17.42;;
33902;SDS011;20194;50.950;5.346;2024-01-15T06:39:28;49.30;;;17.33;;
33902;SDS011;20194;50.950;5.346;2024-01-15T06:41:54;43.83;;;17.55;;
33902;SDS011;20194;50.950;5.346;2024-01-15T06:44:20;48.10;;;15.85;;
33902;SDS011;20194;50.950;5.346;2024-01-15T06:46:46;40.17;;;16.80;;
33902;SDS011;20194;50.950;5.346;2024-01-15T06:49:13;42.22;;;16.08;;
33902;SDS011;20194;50.950;5.346;2024-01-15T06:51:38;44.28;;;16.88;;
33902;SDS011;20194;50.950;5.346;2024-01-15T06:54:05;41.13;;;14.10;;
33902;SDS011;20194;50.950;5.346;2024-01-15T06:56:31;41.10;;;15.35;;
33902;SDS011;20194;50.950;5.346;2024-01-15T06:58:57;41.15;;;14.82;;
33902;SDS011;20194;50.950;5.346;2024-01-15T07:01:23;41.28;;;15.63;;
33902;SDS011;20194;50.950;5.346;2024-01-15T07:03:49;41.10;;;13.98;;
33902;SDS011;20194;50.950;5.346;2024-01-15T07:06:14;38.90;;;14.05;;
33902;SDS011;20194;50.950;5.346;2024-01-15T07:08:42;28.15;;;12.55;;
33902;SDS011;20194;50.950;5.346;2024-01-15T07:11:07;33.67;;;14.10;;
33902;SDS011;20194;50.950;5.346;2024-01-15T07:13:33;32.03;;;12.60;;
33902;SDS011;20194;50.950;5.346;2024-01-15T07:16:01;29.17;;;11.68;;
33902;SDS011;20194;50.950;5.346;2024-01-15T07:18:26;26.77;;;10.70;;
33902;SDS011;20194;50.950;5.346;2024-01-15T07:20:53;35.53;;;11.13;;
33902;SDS011;20194;50.950;5.346;2024-01-15T07:23:18;26.98;;;11.65;;
33902;SDS011;20194;50.950;5.346;2024-01-15T07:25:44;28.95;;;10.52;;
33902;SDS011;20194;50.950;5.346;2024-01-15T07:28:10;25.02;;;9.00;;
33902;SDS011;20194;50.950;5.346;2024-01-15T07:30:35;28.08;;;10.05;;
33902;SDS011;20194;50.950;5.346;2024-01-15T07:33:03;24.15;;;9.60;;
33902;SDS011;20194;50.950;5.346;2024-01-15T07:35:29;23.95;;;9.43;;
33902;SDS011;20194;50.950;5.346;2024-01-15T07:37:55;21.52;;;8.68;;
33902;SDS011;20194;50.950;5.346;2024-01-15T07:40:21;19.23;;;8.43;;
33902;SDS011;20194;50.950;5.346;2024-01-15T07:42:47;20.80;;;8.00;;
33902;SDS011;20194;50.950;5.346;2024-01-15T07:45:12;18.55;;;8.23;;
33902;SDS011;20194;50.950;5.346;2024-01-15T07:47:38;17.30;;;7.53;;
33902;SDS011;20194;50.950;5.346;2024-01-15T07:50:04;21.55;;;7.43;;
33902;SDS011;20194;50.950;5.346;2024-01-15T07:52:30;22.88;;;7.72;;
33902;SDS011;20194;50.950;5.346;2024-01-15T07:54:56;14.85;;;7.05;;
33902;SDS011;20194;50.950;5.346;2024-01-15T07:57:24;17.70;;;6.05;;
33902;SDS011;20194;50.950;5.346;2024-01-15T07:59:50;14.70;;;5.88;;
33902;SDS011;20194;50.950;5.346;2024-01-15T08:02:17;12.77;;;5.90;;
33902;SDS011;20194;50.950;5.346;2024-01-15T08:04:42;17.60;;;6.20;;
33902;SDS011;20194;50.950;5.346;2024-01-15T08:07:09;16.58;;;5.50;;
33902;SDS011;20194;50.950;5.346;2024-01-15T08:09:35;10.45;;;5.28;;
33902;SDS011;20194;50.950;5.346;2024-01-15T08:12:00;13.27;;;5.32;;
33902;SDS011;20194;50.950;5.346;2024-01-15T08:14:27;14.52;;;6.55;;
33902;SDS011;20194;50.950;5.346;2024-01-15T08:16:53;15.63;;;6.03;;
33902;SDS011;20194;50.950;5.346;2024-01-15T08:19:18;19.55;;;6.47;;
33902;SDS011;20194;50.950;5.346;2024-01-15T08:21:45;17.05;;;5.95;;
33902;SDS011;20194;50.950;5.346;2024-01-15T08:24:10;16.27;;;5.72;;
33902;SDS011;20194;50.950;5.346;2024-01-15T08:26:36;15.48;;;6.53;;
33902;SDS011;20194;50.950;5.346;2024-01-15T08:29:02;13.60;;;5.80;;
33902;SDS011;20194;50.950;5.346;2024-01-15T08:31:28;20.20;;;6.28;;
33902;SDS011;20194;50.950;5.346;2024-01-15T08:33:54;23.38;;;5.40;;
33902;SDS011;20194;50.950;5.346;2024-01-15T08:36:20;17.08;;;5.63;;
33902;SDS011;20194;50.950;5.346;2024-01-15T08:38:47;19.55;;;5.40;;
33902;SDS011;20194;50.950;5.346;2024-01-15T08:41:13;10.70;;;5.18;;
33902;SDS011;20194;50.950;5.346;2024-01-15T08:43:39;13.52;;;5.20;;
33902;SDS011;20194;50.950;5.346;2024-01-15T08:46:04;10.55;;;4.93;;
33902;SDS011;20194;50.950;5.346;2024-01-15T08:48:30;11.57;;;4.85;;
33902;SDS011;20194;50.950;5.346;2024-01-15T08:50:56;13.13;;;4.90;;
33902;SDS011;20194;50.950;5.346;2024-01-15T08:53:23;13.40;;;5.53;;
33902;SDS011;20194;50.950;5.346;2024-01-15T08:55:48;12.18;;;5.13;;
33902;SDS011;20194;50.950;5.346;2024-01-15T08:58:14;12.60;;;5.05;;
33902;SDS011;20194;50.950;5.346;2024-01-15T09:00:40;9.23;;;4.78;;
33902;SDS011;20194;50.950;5.346;2024-01-15T09:03:06;21.15;;;7.18;;
33902;SDS011;20194;50.950;5.346;2024-01-15T09:05:33;97.20;;;26.85;;
33902;SDS011;20194;50.950;5.346;2024-01-15T09:07:59;69.90;;;23.10;;
33902;SDS011;20194;50.950;5.346;2024-01-15T09:10:24;40.72;;;15.80;;
33902;SDS011;20194;50.950;5.346;2024-01-15T09:12:50;21.90;;;6.82;;
33902;SDS011;20194;50.950;5.346;2024-01-15T09:15:16;13.50;;;4.20;;
33902;SDS011;20194;50.950;5.346;2024-01-15T09:17:42;14.95;;;5.40;;
33902;SDS011;20194;50.950;5.346;2024-01-15T09:20:09;7.03;;;3.38;;
33902;SDS011;20194;50.950;5.346;2024-01-15T09:22:37;14.23;;;4.97;;
33902;SDS011;20194;50.950;5.346;2024-01-15T09:25:05;7.88;;;3.72;;
33902;SDS011;20194;50.950;5.346;2024-01-15T09:27:31;22.08;;;5.88;;
33902;SDS011;20194;50.950;5.346;2024-01-15T09:29:57;20.05;;;4.60;;
33902;SDS011;20194;50.950;5.346;2024-01-15T09:32:23;10.27;;;4.28;;
33902;SDS011;20194;50.950;5.346;2024-01-15T09:34:49;11.10;;;3.75;;
33902;SDS011;20194;50.950;5.346;2024-01-15T09:37:15;9.45;;;3.70;;
33902;SDS011;20194;50.950;5.346;2024-01-15T09:39:41;13.93;;;4.18;;
33902;SDS011;20194;50.950;5.346;2024-01-15T09:42:07;12.90;;;5.43;;
33902;SDS011;20194;50.950;5.346;2024-01-15T09:44:34;12.27;;;3.65;;
33902;SDS011;20194;50.950;5.346;2024-01-15T09:47:00;11.02;;;3.58;;
33902;SDS011;20194;50.950;5.346;2024-01-15T09:49:26;8.35;;;4.20;;
33902;SDS011;20194;50.950;5.346;2024-01-15T09:51:52;14.07;;;3.65;;
33902;SDS011;20194;50.950;5.346;2024-01-15T09:54:19;12.13;;;3.55;;
33902;SDS011;20194;50.950;5.346;2024-01-15T09:56:46;10.85;;;4.10;;
33902;SDS011;20194;50.950;5.346;2024-01-15T09:59:18;16.17;;;3.67;;
33902;SDS011;20194;50.950;5.346;2024-01-15T10:01:46;15.63;;;3.63;;
33902;SDS011;20194;50.950;5.346;2024-01-15T10:04:14;12.85;;;3.30;;
33902;SDS011;20194;50.950;5.346;2024-01-15T10:06:42;14.57;;;3.85;;
33902;SDS011;20194;50.950;5.346;2024-01-15T10:09:13;18.53;;;3.53;;
33902;SDS011;20194;50.950;5.346;2024-01-15T10:11:43;7.95;;;3.17;;
33902;SDS011;20194;50.950;5.346;2024-01-15T10:14:12;15.38;;;3.58;;
33902;SDS011;20194;50.950;5.346;2024-01-15T10:16:41;15.68;;;3.35;;
33902;SDS011;20194;50.950;5.346;2024-01-15T10:19:08;15.13;;;3.45;;
33902;SDS011;20194;50.950;5.346;2024-01-15T10:21:34;14.57;;;3.38;;
33902;SDS011;20194;50.950;5.346;2024-01-15T10:24:01;15.38;;;3.10;;
33902;SDS011;20194;50.950;5.346;2024-01-15T10:26:28;14.25;;;2.67;;
33902;SDS011;20194;50.950;5.346;2024-01-15T10:28:54;12.55;;;3.25;;
33902;SDS011;20194;50.950;5.346;2024-01-15T10:31:20;17.20;;;2.75;;
33902;SDS011;20194;50.950;5.346;2024-01-15T10:33:47;18.52;;;2.60;;
33902;SDS011;20194;50.950;5.346;2024-01-15T10:36:14;5.15;;;2.50;;
33902;SDS011;20194;50.950;5.346;2024-01-15T10:38:45;17.35;;;3.20;;
33902;SDS011;20194;50.950;5.346;2024-01-15T10:41:12;18.35;;;2.40;;
33902;SDS011;20194;50.950;5.346;2024-01-15T10:43:38;11.25;;;2.45;;
33902;SDS011;20194;50.950;5.346;2024-01-15T10:46:06;10.85;;;2.92;;
33902;SDS011;20194;50.950;5.346;2024-01-15T10:48:33;14.32;;;2.20;;
33902;SDS011;20194;50.950;5.346;2024-01-15T10:51:01;15.68;;;2.35;;
33902;SDS011;20194;50.950;5.346;2024-01-15T10:53:35;13.05;;;2.38;;
33902;SDS011;20194;50.950;5.346;2024-01-15T10:56:05;8.90;;;1.48;;
33902;SDS011;20194;50.950;5.346;2024-01-15T10:58:32;10.93;;;3.83;;
33902;SDS011;20194;50.950;5.346;2024-01-15T11:01:00;7.97;;;2.50;;
33902;SDS011;20194;50.950;5.346;2024-01-15T11:03:27;10.65;;;2.38;;
33902;SDS011;20194;50.950;5.346;2024-01-15T11:05:53;6.15;;;2.33;;
33902;SDS011;20194;50.950;5.346;2024-01-15T11:08:19;5.35;;;1.92;;
33902;SDS011;20194;50.950;5.346;2024-01-15T11:18:31;7.80;;;1.17;;
33902;SDS011;20194;50.950;5.346;2024-01-15T11:23:54;11.57;;;2.22;;
33902;SDS011;20194;50.950;5.346;2024-01-15T11:28:52;7.82;;;2.00;;
33902;SDS011;20194;50.950;5.346;2024-01-15T11:31:19;8.55;;;2.10;;
33902;SDS011;20194;50.950;5.346;2024-01-15T11:33:48;15.60;;;2.58;;
33902;SDS011;20194;50.950;5.346;2024-01-15T11:36:15;25.52;;;3.03;;
33902;SDS011;20194;50.950;5.346;2024-01-15T11:38:40;11.48;;;3.28;;
33902;SDS011;20194;50.950;5.346;2024-01-15T11:41:15;12.95;;;3.13;;
33902;SDS011;20194;50.950;5.346;2024-01-15T11:43:41;8.82;;;2.92;;
33902;SDS011;20194;50.950;5.346;2024-01-15T11:46:11;16.13;;;3.25;;
33902;SDS011;20194;50.950;5.346;2024-01-15T11:48:44;9.63;;;2.70;;
33902;SDS011;20194;50.950;5.346;2024-01-15T11:51:13;13.70;;;3.70;;
33902;SDS011;20194;50.950;5.346;2024-01-15T11:53:43;8.30;;;3.28;;
33902;SDS011;20194;50.950;5.346;2024-01-15T11:56:12;6.85;;;2.88;;
33902;SDS011;20194;50.950;5.346;2024-01-15T11:58:41;11.13;;;3.67;;
33902;SDS011;20194;50.950;5.346;2024-01-15T12:01:08;8.35;;;2.80;;
33902;SDS011;20194;50.950;5.346;2024-01-15T12:03:35;17.75;;;3.85;;
33902;SDS011;20194;50.950;5.346;2024-01-15T12:06:01;14.80;;;3.55;;
33902;SDS011;20194;50.950;5.346;2024-01-15T12:08:30;16.70;;;3.00;;
33902;SDS011;20194;50.950;5.346;2024-01-15T12:10:55;4.80;;;2.47;;
33902;SDS011;20194;50.950;5.346;2024-01-15T12:13:22;8.05;;;3.03;;
33902;SDS011;20194;50.950;5.346;2024-01-15T12:15:48;7.53;;;3.03;;
33902;SDS011;20194;50.950;5.346;2024-01-15T12:18:16;6.65;;;2.47;;
33902;SDS011;20194;50.950;5.346;2024-01-15T12:20:44;2.10;;;1.92;;
33902;SDS011;20194;50.950;5.346;2024-01-15T12:23:13;5.43;;;2.10;;
33902;SDS011;20194;50.950;5.346;2024-01-15T12:25:38;2.70;;;1.77;;
33902;SDS011;20194;50.950;5.346;2024-01-15T12:28:05;1.77;;;1.33;;
33902;SDS011;20194;50.950;5.346;2024-01-15T12:30:31;3.13;;;1.58;;
33902;SDS011;20194;50.950;5.346;2024-01-15T12:33:01;3.58;;;1.80;;
33902;SDS011;20194;50.950;5.346;2024-01-15T12:35:28;5.28;;;1.70;;
33902;SDS011;20194;50.950;5.346;2024-01-15T12:37:55;2.60;;;1.95;;
33902;SDS011;20194;50.950;5.346;2024-01-15T12:40:21;2.80;;;2.00;;
33902;SDS011;20194;50.950;5.346;2024-01-15T12:42:48;2.67;;;1.50;;
33902;SDS011;20194;50.950;5.346;2024-01-15T12:45:14;2.67;;;1.50;;
33902;SDS011;20194;50.950;5.346;2024-01-15T12:47:40;3.10;;;2.00;;
33902;SDS011;20194;50.950;5.346;2024-01-15T12:50:07;6.72;;;2.13;;
33902;SDS011;20194;50.950;5.346;2024-01-15T12:52:39;11.38;;;2.50;;
33902;SDS011;20194;50.950;5.346;2024-01-15T12:55:06;2.53;;;1.85;;
33902;SDS011;20194;50.950;5.346;2024-01-15T12:57:34;5.50;;;1.65;;
33902;SDS011;20194;50.950;5.346;2024-01-15T13:00:00;5.55;;;1.67;;
33902;SDS011;20194;50.950;5.346;2024-01-15T13:02:26;5.05;;;2.50;;
33902;SDS011;20194;50.950;5.346;2024-01-15T13:04:52;3.33;;;1.90;;
33902;SDS011;20194;50.950;5.346;2024-01-15T13:07:19;9.38;;;1.92;;
33902;SDS011;20194;50.950;5.346;2024-01-15T13:09:45;4.72;;;2.17;;
33902;SDS011;20194;50.950;5.346;2024-01-15T13:12:10;6.60;;;2.08;;
33902;SDS011;20194;50.950;5.346;2024-01-15T13:14:36;6.93;;;2.33;;
33902;SDS011;20194;50.950;5.346;2024-01-15T13:17:02;4.03;;;2.10;;
33902;SDS011;20194;50.950;5.346;2024-01-15T13:19:28;2.90;;;1.83;;
33902;SDS011;20194;50.950;5.346;2024-01-15T13:21:55;2.45;;;1.63;;
33902;SDS011;20194;50.950;5.346;2024-01-15T13:24:23;3.85;;;1.50;;
33902;SDS011;20194;50.950;5.346;2024-01-15T13:26:48;5.10;;;1.70;;
33902;SDS011;20194;50.950;5.346;2024-01-15T13:29:14;2.08;;;0.95;;
33902;SDS011;20194;50.950;5.346;2024-01-15T13:31:40;3.08;;;1.48;;
33902;SDS011;20194;50.950;5.346;2024-01-15T13:34:06;4.97;;;1.80;;
33902;SDS011;20194;50.950;5.346;2024-01-15T13:36:32;5.95;;;1.67;;
33902;SDS011;20194;50.950;5.346;2024-01-15T13:38:58;5.85;;;1.77;;
33902;SDS011;20194;50.950;5.346;2024-01-15T13:41:24;2.78;;;1.90;;
33902;SDS011;20194;50.950;5.346;2024-01-15T13:43:52;5.70;;;2.10;;
33902;SDS011;20194;50.950;5.346;2024-01-15T13:46:20;2.85;;;1.70;;
33902;SDS011;20194;50.950;5.346;2024-01-15T13:48:48;3.17;;;1.63;;
33902;SDS011;20194;50.950;5.346;2024-01-15T13:51:14;3.33;;;1.65;;
33902;SDS011;20194;50.950;5.346;2024-01-15T13:53:39;7.68;;;1.42;;
33902;SDS011;20194;50.950;5.346;2024-01-15T13:56:06;3.67;;;1.67;;
33902;SDS011;20194;50.950;5.346;2024-01-15T13:58:32;5.35;;;2.25;;
33902;SDS011;20194;50.950;5.346;2024-01-15T14:00:59;2.97;;;1.77;;
33902;SDS011;20194;50.950;5.346;2024-01-15T14:03:26;4.57;;;2.00;;
33902;SDS011;20194;50.950;5.346;2024-01-15T14:05:52;5.72;;;1.95;;
33902;SDS011;20194;50.950;5.346;2024-01-15T14:08:18;6.13;;;2.25;;
33902;SDS011;20194;50.950;5.346;2024-01-15T14:10:46;3.38;;;1.60;;
33902;SDS011;20194;50.950;5.346;2024-01-15T14:13:12;5.15;;;1.60;;
33902;SDS011;20194;50.950;5.346;2024-01-15T14:15:37;8.25;;;2.28;;
33902;SDS011;20194;50.950;5.346;2024-01-15T14:18:03;3.35;;;1.77;;
33902;SDS011;20194;50.950;5.346;2024-01-15T14:20:29;2.63;;;1.58;;
33902;SDS011;20194;50.950;5.346;2024-01-15T14:22:56;1.95;;;1.38;;
33902;SDS011;20194;50.950;5.346;2024-01-15T14:25:21;8.30;;;2.08;;
33902;SDS011;20194;50.950;5.346;2024-01-15T14:27:47;7.85;;;2.95;;
33902;SDS011;20194;50.950;5.346;2024-01-15T14:30:13;6.50;;;1.60;;
33902;SDS011;20194;50.950;5.346;2024-01-15T14:32:41;3.67;;;1.40;;
33902;SDS011;20194;50.950;5.346;2024-01-15T14:35:09;1.35;;;1.10;;
33902;SDS011;20194;50.950;5.346;2024-01-15T14:37:38;1.13;;;0.80;;